Pagrindinis puslapis
METAR-TAF:

METAR-TAF

Oro uostai :

Roma, Italija

platuma: 41-57N, ilguma: 012-30E, Aukštis: 18 m

Dabartinis oras

Ataskaita buvo paskelbta 2 valandos ir 51 minutes, ne 17:50 UTC
Vėjas 6 kt iš Vakarų/Pietvakarių
Temperatūra 15°C
Drėgmė 67%
Slėgis 1021 hPa
Matomumas 10 km arba daugiau
nėra debesų žemiau 1500 m ir nėra kamuolinių lietaus debesų

METAR: LIRU 091750Z 25006KT CAVOK 15/09 Q1021

Laikas: 22:41 (20:41 UTC)

Prognozė

Ataskaita buvo paskelbta 6 valandos ir 41 minutes, ne 14:00 UTC
Prognozė galioja nuo 09 metu 15 UTC su 09 metu 24 UTC
Vėjas 4 kt nuo kintamojo kryptimis
Matomumas 10 km arba daugiau
nėra debesų žemiau 1500 m ir nėra kamuolinių lietaus debesų

TAF: LIRU 091400Z 0915/0924 VRB04KT CAVOK

Orai ataskaitas ir orų prognozės (METAR, TAF).

turimą stotys yra geltonos ir raudonos taškus žemėlapyje.

Perkelti pele per norėdami pamatyti stoties vardą.

Tada spustelėkite, norėdami matyti oro stebėjimo ir prognozės.

Norėdami pakeisti žemėlapį: spustelėkite ant žalios mygtukų su juodo kryžiaus žemyn,; žalią mygtuką su brūkšneliu, jei norite nutolinti; arba žalių rodyklių gretimoms žemėlapius.


METAR-TAF: